createdAt,value
2018-12-14T00:01:16.128Z,18.23
2018-12-14T00:03:44.509Z,18.70
2018-12-14T00:06:12.978Z,20.53
2018-12-14T00:08:42.403Z,18.00
2018-12-14T00:11:11.006Z,17.47
2018-12-14T00:13:39.775Z,18.77
2018-12-14T00:16:08.318Z,18.83
2018-12-14T00:18:37.641Z,19.50
2018-12-14T00:21:06.175Z,20.80
2018-12-14T00:23:34.725Z,20.90
2018-12-14T00:26:03.176Z,21.47
2018-12-14T00:28:31.676Z,20.33
2018-12-14T00:31:00.470Z,18.13
2018-12-14T00:33:28.981Z,22.00
2018-12-14T00:35:57.995Z,19.00
2018-12-14T00:38:26.502Z,22.00
2018-12-14T00:40:55.023Z,21.70
2018-12-14T00:43:23.854Z,24.20
2018-12-14T00:45:52.298Z,21.03
2018-12-14T00:48:20.945Z,20.90
2018-12-14T00:50:49.511Z,21.50
2018-12-14T00:53:18.078Z,19.80
2018-12-14T00:55:46.489Z,22.33
2018-12-14T00:58:14.842Z,21.30
2018-12-14T01:00:43.406Z,22.40
2018-12-14T01:03:11.905Z,20.03
2018-12-14T01:05:40.288Z,23.60
2018-12-14T01:08:08.864Z,21.20
2018-12-14T01:10:37.338Z,22.33
2018-12-14T01:13:10.571Z,21.90
2018-12-14T01:15:40.779Z,21.60
2018-12-14T01:18:09.191Z,24.67
2018-12-14T01:20:40.755Z,22.33
2018-12-14T01:23:09.108Z,22.97
2018-12-14T01:25:37.400Z,22.33
2018-12-14T01:28:05.848Z,21.97
2018-12-14T01:30:35.253Z,23.83
2018-12-14T01:33:06.403Z,20.67
2018-12-14T01:35:37.829Z,21.93
2018-12-14T01:38:08.427Z,21.07
2018-12-14T01:40:37.993Z,24.53
2018-12-14T01:43:06.513Z,27.37
2018-12-14T01:45:36.862Z,22.07
2018-12-14T01:48:08.516Z,26.47
2018-12-14T01:50:38.747Z,22.53
2018-12-14T01:53:07.231Z,25.13
2018-12-14T01:55:35.691Z,24.37
2018-12-14T01:58:08.454Z,23.87
2018-12-14T02:00:49.358Z,24.23
2018-12-14T02:03:25.270Z,24.40
2018-12-14T02:06:00.925Z,23.10
2018-12-14T02:08:30.084Z,25.33
2018-12-14T02:11:07.723Z,24.17
2018-12-14T02:13:36.163Z,24.67
2018-12-14T02:16:05.393Z,25.07
2018-12-14T02:18:33.895Z,23.80
2018-12-14T02:21:02.414Z,23.97
2018-12-14T02:23:30.864Z,27.33
2018-12-14T02:25:59.274Z,23.53
2018-12-14T02:28:27.881Z,22.00
2018-12-14T02:30:56.404Z,23.20
2018-12-14T02:33:24.844Z,24.50
2018-12-14T02:35:53.272Z,22.93
2018-12-14T02:38:22.725Z,24.70
2018-12-14T02:40:51.670Z,29.23
2018-12-14T02:43:22.013Z,24.73
2018-12-14T02:45:51.742Z,25.70
2018-12-14T02:48:20.142Z,28.70
2018-12-14T02:50:49.058Z,28.70
2018-12-14T02:53:17.595Z,26.37
2018-12-14T02:55:46.125Z,26.67
2018-12-14T02:58:14.694Z,26.67
2018-12-14T03:00:43.104Z,28.27
2018-12-14T03:03:11.522Z,25.50
2018-12-14T03:05:40.039Z,27.03
2018-12-14T03:08:08.483Z,26.53
2018-12-14T03:10:37.084Z,26.73
2018-12-14T03:13:05.744Z,26.03
2018-12-14T03:15:34.194Z,25.10
2018-12-14T03:18:02.757Z,28.10
2018-12-14T03:20:31.321Z,29.50
2018-12-14T03:22:59.870Z,28.17
2018-12-14T03:25:28.338Z,26.70
2018-12-14T03:27:57.264Z,27.77
2018-12-14T03:30:25.859Z,29.00
2018-12-14T03:32:54.530Z,27.47
2018-12-14T03:35:23.263Z,24.93
2018-12-14T03:37:51.824Z,25.17
2018-12-14T03:40:20.343Z,30.37
2018-12-14T03:42:49.299Z,28.17
2018-12-14T03:45:17.708Z,30.03
2018-12-14T03:47:46.101Z,25.40
2018-12-14T03:50:14.438Z,27.83
2018-12-14T03:52:42.038Z,28.90
2018-12-14T03:55:10.309Z,28.23
2018-12-14T03:57:38.880Z,28.60
2018-12-14T04:00:09.800Z,24.77
2018-12-14T04:02:38.395Z,27.87
2018-12-14T04:05:07.233Z,26.13
2018-12-14T04:07:35.573Z,27.97
2018-12-14T04:10:04.502Z,25.83
2018-12-14T04:12:33.130Z,30.20
2018-12-14T04:15:01.511Z,27.43
2018-12-14T04:17:29.975Z,27.67
2018-12-14T04:19:58.511Z,26.37
2018-12-14T04:22:26.968Z,24.53
2018-12-14T04:24:55.621Z,28.50
2018-12-14T04:27:24.278Z,26.57
2018-12-14T04:29:53.118Z,28.93
2018-12-14T04:32:21.669Z,25.80
2018-12-14T04:34:50.200Z,25.83
2018-12-14T04:37:19.008Z,26.00
2018-12-14T04:39:46.700Z,26.20
2018-12-14T04:42:15.672Z,27.53
2018-12-14T04:44:44.497Z,30.80
2018-12-14T04:47:13.469Z,26.13
2018-12-14T04:49:42.638Z,28.73
2018-12-14T04:52:11.048Z,27.50
2018-12-14T04:54:39.585Z,26.17
2018-12-14T04:57:08.316Z,27.93
2018-12-14T04:59:36.831Z,26.80
2018-12-14T05:02:05.485Z,28.63
2018-12-14T05:04:33.982Z,26.63
2018-12-14T05:07:02.370Z,25.03
2018-12-14T05:09:31.113Z,26.80
2018-12-14T05:12:00.215Z,28.63
2018-12-14T05:14:28.679Z,28.47
2018-12-14T05:16:57.227Z,26.30
2018-12-14T05:19:25.890Z,27.50
2018-12-14T05:21:54.676Z,26.83
2018-12-14T05:24:23.213Z,25.10
2018-12-14T05:26:51.756Z,27.17
2018-12-14T05:29:20.272Z,30.30
2018-12-14T05:31:48.810Z,25.80
2018-12-14T05:34:17.728Z,25.43
2018-12-14T05:36:46.243Z,26.80
2018-12-14T05:39:15.122Z,27.63
2018-12-14T05:41:43.711Z,25.07
2018-12-14T05:44:12.371Z,25.03
2018-12-14T05:46:40.777Z,25.17
2018-12-14T05:49:09.295Z,26.47
2018-12-14T05:51:38.446Z,27.23
2018-12-14T05:54:07.178Z,26.20
2018-12-14T05:56:35.798Z,24.93
2018-12-14T06:01:57.495Z,28.70
2018-12-14T06:04:26.333Z,28.13
2018-12-14T06:09:24.216Z,28.10
2018-12-14T06:11:52.627Z,26.47
2018-12-14T06:14:20.927Z,25.43
2018-12-14T06:16:50.045Z,25.17
2018-12-14T06:19:19.342Z,24.47
2018-12-14T06:24:16.395Z,27.60
2018-12-14T06:26:45.245Z,29.43
2018-12-14T06:29:12.891Z,29.37
2018-12-14T06:31:41.983Z,25.17
2018-12-14T06:34:11.072Z,27.07
2018-12-14T06:36:39.646Z,26.77
2018-12-14T06:39:08.390Z,29.77
2018-12-14T06:41:37.045Z,28.97
2018-12-14T06:44:05.477Z,28.43
2018-12-14T06:46:34.044Z,27.03
2018-12-14T06:49:02.456Z,29.80
2018-12-14T06:51:31.205Z,26.93
2018-12-14T06:53:59.650Z,25.97
2018-12-14T06:56:28.404Z,27.93
2018-12-14T06:58:57.430Z,30.70
2018-12-14T07:01:25.878Z,27.37
2018-12-14T07:03:54.370Z,30.67
2018-12-14T07:06:22.957Z,29.60
2018-12-14T07:08:51.582Z,33.27
2018-12-14T07:11:20.012Z,29.33
2018-12-14T07:13:48.483Z,28.30
2018-12-14T07:16:19.151Z,27.00
2018-12-14T07:18:48.039Z,27.00
2018-12-14T07:21:16.325Z,31.27
2018-12-14T07:23:44.936Z,28.43
2018-12-14T07:26:13.393Z,25.30
2018-12-14T07:28:42.029Z,28.33
2018-12-14T07:33:37.573Z,32.40
2018-12-14T07:36:06.036Z,27.93
2018-12-14T07:38:34.423Z,26.80
2018-12-14T07:41:02.895Z,26.23
2018-12-14T07:43:31.434Z,28.53
2018-12-14T07:45:59.817Z,27.50
2018-12-14T07:48:33.681Z,27.97
2018-12-14T07:51:02.316Z,27.57
2018-12-14T07:53:31.767Z,30.90
2018-12-14T07:56:00.994Z,30.30
2018-12-14T08:03:21.665Z,28.23
2018-12-14T08:05:52.270Z,28.37
2018-12-14T08:08:21.750Z,29.00
2018-12-14T08:10:50.645Z,27.23
2018-12-14T08:13:19.697Z,28.97
2018-12-14T08:15:48.151Z,27.43
2018-12-14T08:18:16.783Z,26.80
2018-12-14T08:20:45.230Z,27.23
2018-12-14T08:26:28.643Z,28.33
2018-12-14T08:31:27.923Z,28.17
2018-12-14T08:34:03.777Z,28.73
2018-12-14T08:36:39.584Z,24.90
2018-12-14T08:39:08.260Z,26.57
2018-12-14T08:44:25.384Z,31.83
2018-12-14T08:46:53.995Z,29.10
2018-12-14T08:51:56.157Z,28.03
2018-12-14T08:54:24.537Z,26.60
2018-12-14T08:56:53.471Z,28.60
2018-12-14T09:01:48.485Z,28.25
2018-12-14T09:04:16.823Z,28.70
2018-12-14T09:06:45.233Z,29.97
2018-12-14T09:09:13.715Z,28.63
2018-12-14T09:11:42.485Z,28.23
2018-12-14T09:14:10.882Z,31.60
2018-12-14T09:16:39.691Z,28.30
2018-12-14T09:19:08.114Z,28.33
2018-12-14T09:21:36.774Z,30.90
2018-12-14T09:24:05.468Z,58.33
2018-12-14T09:26:33.877Z,79.33
2018-12-14T09:29:03.409Z,47.83
2018-12-14T09:31:32.173Z,29.87
2018-12-14T09:34:00.557Z,29.63
2018-12-14T09:36:28.938Z,27.87
2018-12-14T09:38:57.827Z,31.30
2018-12-14T09:41:26.369Z,29.17
2018-12-14T09:43:54.873Z,29.80
2018-12-14T09:48:51.064Z,30.33
2018-12-14T09:51:19.585Z,30.10
2018-12-14T09:53:48.019Z,30.07
2018-12-14T09:56:16.792Z,36.13
2018-12-14T09:58:45.457Z,29.53
2018-12-14T10:01:14.500Z,33.37
2018-12-14T10:03:44.394Z,27.67
2018-12-14T10:06:15.689Z,30.93
2018-12-14T10:08:43.702Z,28.83
2018-12-14T10:11:12.399Z,31.00
2018-12-14T10:13:40.986Z,27.50
2018-12-14T10:16:09.619Z,26.67
2018-12-14T10:18:43.917Z,34.40
2018-12-14T10:21:12.533Z,29.17
2018-12-14T10:23:41.097Z,30.97
2018-12-14T10:26:11.341Z,28.10
2018-12-14T10:28:39.815Z,24.57
2018-12-14T10:31:08.355Z,26.80
2018-12-14T10:33:36.905Z,29.60
2018-12-14T10:36:06.306Z,27.20
2018-12-14T10:38:34.728Z,27.47
2018-12-14T10:41:02.487Z,29.20
2018-12-14T10:43:30.987Z,27.63
2018-12-14T10:45:59.532Z,27.77
2018-12-14T10:48:28.191Z,29.37
2018-12-14T10:50:57.191Z,27.30
2018-12-14T10:53:26.434Z,27.47
2018-12-14T10:55:55.139Z,25.00
2018-12-14T10:58:23.477Z,26.67
2018-12-14T11:00:57.376Z,27.47
2018-12-14T11:03:25.999Z,24.90
2018-12-14T11:05:54.377Z,25.27
2018-12-14T11:08:22.140Z,29.10
2018-12-14T11:10:50.882Z,28.33
2018-12-14T11:13:19.837Z,23.57
2018-12-14T11:15:48.437Z,26.43
2018-12-14T11:18:16.891Z,25.53
2018-12-14T11:20:45.268Z,22.60
2018-12-14T11:23:13.701Z,28.03
2018-12-14T11:25:42.175Z,25.87
2018-12-14T11:28:10.538Z,25.43
2018-12-14T11:30:38.901Z,30.23
2018-12-14T11:33:08.135Z,25.17
2018-12-14T11:35:36.573Z,28.50
2018-12-14T11:38:05.015Z,27.57
2018-12-14T11:40:33.566Z,30.87
2018-12-14T11:43:01.948Z,30.47
2018-12-14T11:45:30.221Z,25.50
2018-12-14T11:47:58.885Z,26.57
2018-12-14T11:50:27.301Z,26.20
2018-12-14T11:52:56.838Z,26.40
2018-12-14T11:55:25.866Z,27.23
2018-12-14T11:57:54.251Z,24.93
2018-12-14T12:00:22.898Z,26.23
2018-12-14T12:02:51.493Z,26.27
2018-12-14T12:07:48.361Z,26.80
2018-12-14T12:10:15.994Z,27.17
2018-12-14T12:12:44.474Z,25.60
2018-12-14T12:15:12.835Z,27.47
2018-12-14T12:17:41.312Z,28.20
2018-12-14T12:20:10.002Z,27.67
2018-12-14T12:22:37.791Z,26.70
2018-12-14T12:25:06.357Z,26.00
2018-12-14T12:27:34.975Z,23.97
2018-12-14T12:30:04.125Z,25.67
2018-12-14T12:32:33.720Z,27.50
2018-12-14T12:35:02.154Z,26.93
2018-12-14T12:37:31.098Z,26.40
2018-12-14T12:39:59.837Z,24.23
2018-12-14T12:42:27.455Z,24.73
2018-12-14T12:44:55.973Z,28.53
2018-12-14T12:47:24.441Z,28.73
2018-12-14T12:49:52.908Z,26.33
2018-12-14T12:52:21.279Z,23.30
2018-12-14T12:54:49.701Z,26.97
2018-12-14T12:57:18.349Z,26.70
2018-12-14T12:59:48.636Z,24.80
2018-12-14T13:02:19.940Z,25.60
2018-12-14T13:04:48.545Z,26.77
2018-12-14T13:07:17.061Z,23.13
2018-12-14T13:09:45.416Z,26.43
2018-12-14T13:12:13.930Z,24.30
2018-12-14T13:14:42.346Z,22.50
2018-12-14T13:17:10.917Z,28.60
2018-12-14T13:19:39.407Z,22.70
2018-12-14T13:22:07.730Z,24.97
2018-12-14T13:24:36.296Z,26.83
2018-12-14T13:27:04.778Z,24.73
2018-12-14T13:29:33.131Z,25.43
2018-12-14T13:32:01.220Z,24.40
2018-12-14T13:34:29.051Z,22.73
2018-12-14T13:36:57.329Z,25.10
2018-12-14T13:39:26.175Z,23.87
2018-12-14T13:41:54.692Z,22.93
2018-12-14T13:44:23.416Z,21.77
2018-12-14T13:46:52.603Z,23.73
2018-12-14T13:49:23.794Z,23.77
2018-12-14T13:51:52.170Z,22.27
2018-12-14T13:54:20.589Z,23.23
2018-12-14T13:56:48.884Z,23.90
2018-12-14T13:59:17.721Z,24.03
2018-12-14T14:01:46.363Z,26.13
2018-12-14T14:04:14.813Z,24.17
2018-12-14T14:06:43.263Z,21.07
2018-12-14T14:09:12.161Z,20.90
2018-12-14T14:11:40.679Z,20.77
2018-12-14T14:14:09.250Z,21.57
2018-12-14T14:16:37.657Z,21.57
2018-12-14T14:19:05.987Z,20.67
2018-12-14T14:21:34.319Z,20.83
2018-12-14T14:24:02.669Z,20.97
2018-12-14T14:26:31.321Z,25.87
2018-12-14T14:28:59.787Z,26.00
2018-12-14T14:31:28.286Z,28.13
2018-12-14T14:33:56.776Z,21.50
2018-12-14T14:36:25.262Z,20.90
2018-12-14T14:38:54.393Z,21.10
2018-12-14T14:41:23.065Z,17.47
2018-12-14T14:43:52.134Z,20.63
2018-12-14T14:46:20.626Z,21.03
2018-12-14T14:48:48.967Z,18.83
2018-12-14T14:51:17.538Z,19.00
2018-12-14T14:53:45.882Z,21.07
2018-12-14T14:56:14.230Z,21.20
2018-12-14T14:58:42.851Z,19.13
2018-12-14T15:01:11.935Z,21.07
2018-12-14T15:03:40.578Z,23.53
2018-12-14T15:06:08.995Z,21.23
2018-12-14T15:08:37.586Z,19.90
2018-12-14T15:11:06.159Z,21.50
2018-12-14T15:13:34.674Z,21.57
2018-12-14T15:16:03.134Z,23.37
2018-12-14T15:18:34.575Z,22.27
2018-12-14T15:23:29.672Z,20.97
2018-12-14T15:25:58.630Z,24.10
2018-12-14T15:28:28.758Z,22.93
2018-12-14T15:30:57.420Z,22.67
2018-12-14T15:33:25.847Z,23.47
2018-12-14T15:35:54.310Z,22.30
2018-12-14T15:38:23.163Z,24.13
2018-12-14T15:40:51.855Z,21.13
2018-12-14T15:43:21.024Z,24.73
2018-12-14T15:45:49.580Z,22.07
2018-12-14T15:48:23.423Z,21.77
2018-12-14T15:50:52.168Z,21.53
2018-12-14T15:53:21.217Z,23.67
2018-12-14T15:55:49.781Z,21.67
2018-12-14T15:58:18.295Z,23.70
2018-12-14T16:00:47.082Z,24.73
2018-12-14T16:03:15.756Z,21.83
2018-12-14T16:05:44.758Z,19.33
2018-12-14T16:08:13.205Z,24.83
2018-12-14T16:10:41.620Z,20.23
2018-12-14T16:15:38.008Z,20.93
2018-12-14T16:18:06.605Z,22.73
2018-12-14T16:20:35.218Z,21.97
2018-12-14T16:23:03.872Z,21.03
2018-12-14T16:25:32.433Z,19.43
2018-12-14T16:28:02.384Z,19.23
2018-12-14T16:30:30.886Z,22.57
2018-12-14T16:32:59.456Z,21.10
2018-12-14T16:35:27.813Z,21.40
2018-12-14T16:37:56.534Z,23.77
2018-12-14T16:40:25.099Z,20.67
2018-12-14T16:42:53.658Z,20.53
2018-12-14T16:45:26.476Z,20.73
2018-12-14T16:47:52.922Z,21.73
2018-12-14T16:50:22.493Z,21.73
2018-12-14T16:52:51.052Z,22.67
2018-12-14T16:55:19.645Z,22.67
2018-12-14T16:57:48.123Z,23.07
2018-12-14T17:00:16.787Z,25.93
2018-12-14T17:02:45.411Z,22.50
2018-12-14T17:05:13.725Z,21.47
2018-12-14T17:07:42.397Z,26.27
2018-12-14T17:10:11.630Z,26.50
2018-12-14T17:12:39.993Z,25.43
2018-12-14T17:15:09.044Z,23.33
2018-12-14T17:17:37.586Z,22.67
2018-12-14T17:20:06.106Z,20.67
2018-12-14T17:22:34.616Z,25.73
2018-12-14T17:25:04.262Z,23.17
2018-12-14T17:27:32.726Z,21.97
2018-12-14T17:30:01.240Z,26.17
2018-12-14T17:32:30.047Z,23.13
2018-12-14T17:34:58.738Z,26.30
2018-12-14T17:37:27.297Z,24.83
2018-12-14T17:39:55.869Z,26.23
2018-12-14T17:42:24.286Z,28.43
2018-12-14T17:44:52.698Z,21.90
2018-12-14T17:47:21.226Z,22.60
2018-12-14T17:49:49.786Z,22.17
2018-12-14T17:52:17.854Z,24.50
2018-12-14T17:54:46.401Z,24.97
2018-12-14T17:57:15.076Z,26.80
2018-12-14T17:59:43.543Z,25.10
2018-12-14T18:02:12.596Z,21.00
2018-12-14T18:04:41.198Z,23.00
2018-12-14T18:07:09.557Z,27.73
2018-12-14T18:09:37.939Z,24.77
2018-12-14T18:12:06.550Z,22.00
2018-12-14T18:14:33.970Z,23.63
2018-12-14T18:17:02.667Z,22.90
2018-12-14T18:19:31.042Z,23.70
2018-12-14T18:21:59.389Z,23.93
2018-12-14T18:24:27.831Z,22.53
2018-12-14T18:26:56.311Z,25.47
2018-12-14T18:29:24.751Z,22.90
2018-12-14T18:31:53.026Z,22.73
2018-12-14T18:34:21.548Z,21.23
2018-12-14T18:36:49.932Z,24.17
2018-12-14T18:39:19.184Z,23.27
2018-12-14T18:41:47.069Z,25.13
2018-12-14T18:44:15.361Z,28.10
2018-12-14T18:46:44.111Z,25.37
2018-12-14T18:49:14.390Z,31.07
2018-12-14T18:51:43.073Z,25.50
2018-12-14T18:54:11.471Z,29.63
2018-12-14T18:56:40.106Z,29.17
2018-12-14T18:59:08.639Z,27.87
2018-12-14T19:01:36.537Z,26.73
2018-12-14T19:04:04.586Z,26.33
2018-12-14T19:06:33.191Z,25.87
2018-12-14T19:09:01.759Z,27.97
2018-12-14T19:11:30.231Z,28.43
2018-12-14T19:13:58.787Z,29.73
2018-12-14T19:16:27.125Z,27.47
2018-12-14T19:18:55.700Z,28.37
2018-12-14T19:21:24.272Z,30.80
2018-12-14T19:23:52.736Z,26.17
2018-12-14T19:26:21.243Z,31.33
2018-12-14T19:28:49.686Z,28.43
2018-12-14T19:31:18.371Z,28.40
2018-12-14T19:33:47.084Z,30.17
2018-12-14T19:36:15.590Z,28.03
2018-12-14T19:38:44.033Z,26.77
2018-12-14T19:41:12.353Z,27.37
2018-12-14T19:43:41.128Z,24.97
2018-12-14T19:46:09.874Z,27.73
2018-12-14T19:48:38.293Z,31.47
2018-12-14T19:51:06.850Z,27.77
2018-12-14T19:53:35.195Z,28.13
2018-12-14T19:56:03.679Z,25.90
2018-12-14T19:58:32.118Z,27.47
2018-12-14T20:01:00.565Z,24.90
2018-12-14T20:03:29.226Z,26.67
2018-12-14T20:05:57.813Z,27.40
2018-12-14T20:08:26.597Z,29.53
2018-12-14T20:10:55.322Z,30.13
2018-12-14T20:13:23.690Z,28.77
2018-12-14T20:15:57.587Z,32.83
2018-12-14T20:18:22.989Z,28.03
2018-12-14T20:20:51.649Z,30.63
2018-12-14T20:23:20.374Z,26.97
2018-12-14T20:25:48.827Z,27.90
2018-12-14T20:28:17.219Z,26.97
2018-12-14T20:30:45.909Z,23.80
2018-12-14T20:33:14.451Z,26.30
2018-12-14T20:35:43.060Z,24.47
2018-12-14T20:38:11.723Z,24.13
2018-12-14T20:40:41.260Z,25.30
2018-12-14T20:43:11.371Z,26.97
2018-12-14T20:45:39.761Z,27.80
2018-12-14T20:48:08.196Z,25.73
2018-12-14T20:50:36.829Z,28.13
2018-12-14T20:53:05.335Z,28.40
2018-12-14T20:55:33.723Z,30.20
2018-12-14T20:58:02.237Z,27.97
2018-12-14T21:00:30.818Z,26.20
2018-12-14T21:02:59.834Z,27.77
2018-12-14T21:05:28.186Z,26.43
2018-12-14T21:07:56.612Z,28.90
2018-12-14T21:10:25.332Z,25.80
2018-12-14T21:12:53.913Z,26.37
2018-12-14T21:15:22.864Z,25.70
2018-12-14T21:17:51.326Z,22.77
2018-12-14T21:20:20.309Z,28.93
2018-12-14T21:22:50.704Z,24.17
2018-12-14T21:25:19.357Z,22.13
2018-12-14T21:27:48.011Z,23.47
2018-12-14T21:30:16.541Z,24.77
2018-12-14T21:32:45.030Z,20.30
2018-12-14T21:35:14.403Z,25.17
2018-12-14T21:37:42.922Z,22.20
2018-12-14T21:40:11.367Z,22.53
2018-12-14T21:42:39.909Z,21.70
2018-12-14T21:45:08.907Z,22.17
2018-12-14T21:47:37.696Z,25.47
2018-12-14T21:50:06.474Z,22.73
2018-12-14T21:52:34.937Z,21.60
2018-12-14T21:55:04.232Z,23.33
2018-12-14T21:57:33.017Z,22.27
2018-12-14T22:00:01.334Z,20.57
2018-12-14T22:02:29.766Z,22.43
2018-12-14T22:04:58.340Z,23.63
2018-12-14T22:07:26.798Z,24.90
2018-12-14T22:09:55.154Z,21.63
2018-12-14T22:12:23.594Z,20.63
2018-12-14T22:14:52.629Z,20.00
2018-12-14T22:17:21.233Z,23.93
2018-12-14T22:19:53.450Z,25.10
2018-12-14T22:22:25.568Z,25.13
2018-12-14T22:24:55.862Z,24.97
2018-12-14T22:27:24.182Z,28.10
2018-12-14T22:29:52.740Z,28.10
2018-12-14T22:32:21.158Z,27.10
2018-12-14T22:34:49.825Z,27.93
2018-12-14T22:37:18.362Z,26.27
2018-12-14T22:39:47.165Z,22.73
2018-12-14T22:42:15.463Z,24.83
2018-12-14T22:44:43.753Z,23.60
2018-12-14T22:47:12.545Z,24.20
2018-12-14T22:49:41.110Z,21.47
2018-12-14T22:52:09.475Z,23.97
2018-12-14T22:54:37.923Z,20.87
2018-12-14T22:57:06.263Z,22.83
2018-12-14T22:59:34.587Z,22.53
2018-12-14T23:02:03.042Z,22.27
2018-12-14T23:04:31.742Z,27.47
2018-12-14T23:07:00.530Z,25.37
2018-12-14T23:09:29.148Z,24.37
2018-12-14T23:11:58.006Z,20.70
2018-12-14T23:14:26.307Z,21.03
2018-12-14T23:16:54.894Z,22.80
2018-12-14T23:19:23.520Z,23.47
2018-12-14T23:21:52.002Z,22.07
2018-12-14T23:24:20.541Z,24.77
2018-12-14T23:26:49.256Z,24.50
2018-12-14T23:29:18.368Z,21.10
2018-12-14T23:31:46.864Z,23.67
2018-12-14T23:34:15.172Z,22.30
2018-12-14T23:36:43.629Z,24.20
2018-12-14T23:39:11.930Z,26.17
2018-12-14T23:41:40.549Z,24.53
2018-12-14T23:44:08.887Z,21.73
2018-12-14T23:46:37.319Z,24.37
2018-12-14T23:49:05.716Z,21.63
2018-12-14T23:51:34.278Z,21.70
2018-12-14T23:54:02.598Z,22.47
2018-12-14T23:56:31.117Z,18.77
2018-12-14T23:58:59.578Z,20.60
